Terminal Aerodrome Forecast
Issued by NWS

Home | Current Version | Previous Version | Text Only | Print | Product List | Glossary Off
Versions: 1 2 3 4 5 6 7 8 9 10 11 12 13 14 15 16 17 18

000
FTUS43 KMPX 200500
TAFRNH
TAF
KRNH 200520Z 2006/2106 16005KT P6SM OVC013
     FM200900 16005KT 5SM BR OVC007
     FM202000 16006KT P6SM OVC015=

USA.gov is the U.S. government's official web portal to all federal, state and local government web resources and services.